createdAt,value
2018-02-07T00:01:23.000Z,30.3
2018-02-07T00:11:23.000Z,30.4
2018-02-07T00:21:23.000Z,30.3
2018-02-07T00:31:23.000Z,30.4
2018-02-07T00:41:23.000Z,30.9
2018-02-07T00:51:23.000Z,30.4
2018-02-07T01:01:23.000Z,30.2
2018-02-07T01:11:23.000Z,30.4
2018-02-07T01:21:23.000Z,32.5
2018-02-07T01:31:23.000Z,30.5
2018-02-07T01:41:23.000Z,30.3
2018-02-07T01:51:23.000Z,30.5
2018-02-07T02:01:23.000Z,30.5
2018-02-07T02:11:23.000Z,30.5
2018-02-07T02:21:23.000Z,31
2018-02-07T02:31:23.000Z,31.1
2018-02-07T02:41:23.000Z,30.7
2018-02-07T02:51:23.000Z,31
2018-02-07T03:01:23.000Z,31.2
2018-02-07T03:11:23.000Z,31.4
2018-02-07T03:21:23.000Z,31.7
2018-02-07T03:31:23.000Z,31.1
2018-02-07T03:41:23.000Z,30.8
2018-02-07T03:51:23.000Z,30.6
2018-02-07T04:01:24.000Z,30.7
2018-02-07T04:11:24.000Z,30.6
2018-02-07T04:21:24.000Z,30.9
2018-02-07T04:31:24.000Z,31.4
2018-02-07T04:41:24.000Z,31
2018-02-07T04:51:24.000Z,30.7
2018-02-07T05:01:24.000Z,31
2018-02-07T05:11:24.000Z,40.9
2018-02-07T05:21:24.000Z,43
2018-02-07T05:31:24.000Z,43.8
2018-02-07T05:41:24.000Z,44.1
2018-02-07T05:51:24.000Z,44.4
2018-02-07T06:01:24.000Z,44.4
2018-02-07T06:11:24.000Z,44.9
2018-02-07T06:21:24.000Z,44.4
2018-02-07T06:31:24.000Z,44.4
2018-02-07T06:41:24.000Z,44.5
2018-02-07T06:51:24.000Z,44.5
2018-02-07T07:01:26.000Z,44.4
2018-02-07T07:11:27.000Z,44.7
2018-02-07T07:21:24.000Z,44.8
2018-02-07T07:31:24.000Z,45
2018-02-07T07:41:24.000Z,46.2
2018-02-07T07:51:24.000Z,45.9
2018-02-07T08:01:24.000Z,46.5
2018-02-07T08:11:24.000Z,45.6
2018-02-07T08:21:24.000Z,45.9
2018-02-07T08:31:24.000Z,45.9
2018-02-07T08:41:24.000Z,46.2
2018-02-07T08:51:24.000Z,46.2
2018-02-07T09:01:24.000Z,46.1
2018-02-07T09:11:24.000Z,45.9
2018-02-07T09:21:24.000Z,46
2018-02-07T09:31:24.000Z,45.8
2018-02-07T09:41:24.000Z,44.9
2018-02-07T09:51:24.000Z,44.6
2018-02-07T10:01:24.000Z,45.7
2018-02-07T10:11:25.000Z,46.9
2018-02-07T10:21:24.000Z,47.3
2018-02-07T10:31:24.000Z,47.5
2018-02-07T10:41:24.000Z,47.7
2018-02-07T10:51:24.000Z,48
2018-02-07T11:01:25.000Z,48.1
2018-02-07T11:11:25.000Z,48.3
2018-02-07T11:21:25.000Z,48.3
2018-02-07T11:31:25.000Z,48.7
2018-02-07T11:41:25.000Z,49.1
2018-02-07T11:51:25.000Z,50.3
2018-02-07T12:01:25.000Z,50.8
2018-02-07T12:11:25.000Z,50.9
2018-02-07T12:21:25.000Z,52
2018-02-07T12:31:25.000Z,52.3
2018-02-07T12:41:25.000Z,52.8
2018-02-07T12:51:25.000Z,53.1
2018-02-07T13:01:25.000Z,52.2
2018-02-07T13:11:25.000Z,51.9
2018-02-07T13:21:25.000Z,51.6
2018-02-07T13:31:25.000Z,51.2
2018-02-07T13:41:25.000Z,50.8
2018-02-07T13:51:25.000Z,50.7
2018-02-07T14:01:25.000Z,51.6
2018-02-07T14:11:25.000Z,51.3
2018-02-07T14:21:25.000Z,51.6
2018-02-07T14:31:25.000Z,53.4
2018-02-07T14:41:25.000Z,52.8
2018-02-07T14:51:25.000Z,52.6
2018-02-07T15:01:25.000Z,52.4
2018-02-07T15:11:25.000Z,52
2018-02-07T15:21:25.000Z,51.9
2018-02-07T15:31:25.000Z,51.8
2018-02-07T15:41:25.000Z,51.7
2018-02-07T15:51:25.000Z,51.8
2018-02-07T16:01:25.000Z,51.8
2018-02-07T16:11:25.000Z,51.6
2018-02-07T16:21:25.000Z,50
2018-02-07T16:31:25.000Z,49.4
2018-02-07T16:41:25.000Z,51.2
2018-02-07T16:51:25.000Z,51.8
2018-02-07T17:01:25.000Z,52.1
2018-02-07T17:11:27.000Z,52.2
2018-02-07T17:21:25.000Z,52.4
2018-02-07T17:31:25.000Z,52.5
2018-02-07T17:41:25.000Z,52.4
2018-02-07T17:51:25.000Z,52.5
2018-02-07T18:01:25.000Z,52.4
2018-02-07T18:11:26.000Z,52.5
2018-02-07T18:21:26.000Z,52.6
2018-02-07T18:31:26.000Z,51.5
2018-02-07T18:41:26.000Z,51.8
2018-02-07T18:51:26.000Z,51.5
2018-02-07T19:01:27.000Z,51.3
2018-02-07T19:11:26.000Z,51.1
2018-02-07T19:21:26.000Z,51
2018-02-07T19:31:26.000Z,50.7
2018-02-07T19:41:26.000Z,50.6
2018-02-07T19:51:26.000Z,50.3
2018-02-07T20:01:28.000Z,50.2
2018-02-07T20:11:28.000Z,50.1
2018-02-07T20:21:26.000Z,49.9
2018-02-07T20:31:26.000Z,49.8
2018-02-07T20:41:26.000Z,49.7
2018-02-07T20:51:28.000Z,49.5
2018-02-07T21:01:28.000Z,49.4
2018-02-07T21:11:26.000Z,49.2
2018-02-07T21:21:26.000Z,49.2
2018-02-07T21:31:26.000Z,49
2018-02-07T21:41:26.000Z,48.9
2018-02-07T21:51:26.000Z,48.7
2018-02-07T22:01:26.000Z,48.8
2018-02-07T22:11:26.000Z,48.5
2018-02-07T22:21:26.000Z,48.3
2018-02-07T22:31:26.000Z,48.3
2018-02-07T22:41:26.000Z,47.9
2018-02-07T22:51:26.000Z,48
2018-02-07T23:01:26.000Z,31.3
2018-02-07T23:11:26.000Z,29.2
2018-02-07T23:21:26.000Z,28.2
2018-02-07T23:31:26.000Z,27.8
2018-02-07T23:41:26.000Z,27.8
2018-02-07T23:51:26.000Z,27.9
